Terminal Aerodrome Forecast
Issued by NWS Twin Cities, MN

Home | Current Version | Previous Version | Graphics & Text | Print | Product List | Glossary On
Versions: 1 2 3 4 5 6 7 8 9 10 11 12 13 14 15 16
000
FTUS43 KMPX 271730
TAFSTC
TAF
KSTC 271730Z 2718/2818 16005KT P6SM OVC016
     FM272200 14007KT P6SM BKN020
     FM280400 14008KT P6SM BKN015
     FM281000 14009KT 6SM BR OVC015=

USA.gov is the U.S. government's official web portal to all federal, state and local government web resources and services.